McLeansville, North Carolina
Current Conditions -  °F | °C
As of 5:54 PM on Tuesday 27 Jan 2015 (Local Time) from KBUY Reporting Station
Clear Clear  
Wind Chill: 37°   Ceiling: Unl
Heat Index: 41°   Visibility: 10mi
Dew Point:   Wind: 6mph
Humidity: 24%   Direction: 320°NW
Pressure: 29.85"   Gusts: NA
Location:  36.1°N, 79.66°W
Report Text: KBUY 272254Z AUTO 32005KT 10SM CLR 05/M14 A2985 RMK AO2 SLP111 T00501144
Loading
Personal Weather Stations






























Interactive Weather Map New forecast layout! Learn more

10-Day Weather Forecast

Advertisements
Track Severe Weather on mobile